sensor_id;sensor_type;location;lat;lon;timestamp;P1;durP1;ratioP1;P2;durP2;ratioP2
83372;SDS011;73281;50.882;5.984;2024-01-30T00:00:37;5.87;;;3.50;;
83372;SDS011;73281;50.882;5.984;2024-01-30T00:03:02;6.27;;;2.83;;
83372;SDS011;73281;50.882;5.984;2024-01-30T00:05:28;5.57;;;3.28;;
83372;SDS011;73281;50.882;5.984;2024-01-30T00:07:53;5.67;;;3.30;;
83372;SDS011;73281;50.882;5.984;2024-01-30T00:10:18;6.90;;;3.50;;
83372;SDS011;73281;50.882;5.984;2024-01-30T00:12:44;5.97;;;3.00;;
83372;SDS011;73281;50.882;5.984;2024-01-30T00:15:09;5.83;;;3.13;;
83372;SDS011;73281;50.882;5.984;2024-01-30T00:17:38;5.80;;;3.33;;
83372;SDS011;73281;50.882;5.984;2024-01-30T00:20:04;7.70;;;2.72;;
83372;SDS011;73281;50.882;5.984;2024-01-30T00:22:34;5.75;;;2.90;;
83372;SDS011;73281;50.882;5.984;2024-01-30T00:24:59;8.87;;;2.97;;
83372;SDS011;73281;50.882;5.984;2024-01-30T00:27:25;5.65;;;2.60;;
83372;SDS011;73281;50.882;5.984;2024-01-30T00:29:51;5.95;;;2.60;;
83372;SDS011;73281;50.882;5.984;2024-01-30T00:32:17;6.07;;;3.00;;
83372;SDS011;73281;50.882;5.984;2024-01-30T00:34:44;6.22;;;3.00;;
83372;SDS011;73281;50.882;5.984;2024-01-30T00:37:09;6.30;;;3.33;;
83372;SDS011;73281;50.882;5.984;2024-01-30T00:39:35;6.17;;;3.07;;
83372;SDS011;73281;50.882;5.984;2024-01-30T00:42:00;4.07;;;2.60;;
83372;SDS011;73281;50.882;5.984;2024-01-30T00:44:25;7.90;;;3.43;;
83372;SDS011;73281;50.882;5.984;2024-01-30T00:46:51;4.68;;;2.78;;
83372;SDS011;73281;50.882;5.984;2024-01-30T00:49:16;5.33;;;2.87;;
83372;SDS011;73281;50.882;5.984;2024-01-30T00:51:41;8.73;;;3.43;;
83372;SDS011;73281;50.882;5.984;2024-01-30T00:54:07;5.27;;;3.37;;
83372;SDS011;73281;50.882;5.984;2024-01-30T00:56:33;5.72;;;2.97;;
83372;SDS011;73281;50.882;5.984;2024-01-30T00:58:58;5.80;;;3.40;;
83372;SDS011;73281;50.882;5.984;2024-01-30T01:01:24;6.00;;;3.43;;
83372;SDS011;73281;50.882;5.984;2024-01-30T01:03:49;6.50;;;2.77;;
83372;SDS011;73281;50.882;5.984;2024-01-30T01:06:14;6.00;;;2.88;;
83372;SDS011;73281;50.882;5.984;2024-01-30T01:08:40;5.20;;;3.03;;
83372;SDS011;73281;50.882;5.984;2024-01-30T01:11:05;6.40;;;3.07;;
83372;SDS011;73281;50.882;5.984;2024-01-30T01:13:30;5.97;;;3.10;;
83372;SDS011;73281;50.882;5.984;2024-01-30T01:15:56;8.10;;;3.10;;
83372;SDS011;73281;50.882;5.984;2024-01-30T01:18:21;6.67;;;3.40;;
83372;SDS011;73281;50.882;5.984;2024-01-30T01:20:46;6.53;;;3.40;;
83372;SDS011;73281;50.882;5.984;2024-01-30T01:23:12;6.63;;;3.10;;
83372;SDS011;73281;50.882;5.984;2024-01-30T01:25:37;8.73;;;3.20;;
83372;SDS011;73281;50.882;5.984;2024-01-30T01:28:03;7.57;;;3.17;;
83372;SDS011;73281;50.882;5.984;2024-01-30T01:30:28;6.07;;;2.97;;
83372;SDS011;73281;50.882;5.984;2024-01-30T01:32:54;6.70;;;2.63;;
83372;SDS011;73281;50.882;5.984;2024-01-30T01:35:25;6.05;;;3.55;;
83372;SDS011;73281;50.882;5.984;2024-01-30T01:37:51;5.53;;;3.63;;
83372;SDS011;73281;50.882;5.984;2024-01-30T01:40:23;4.90;;;2.70;;
83372;SDS011;73281;50.882;5.984;2024-01-30T01:42:50;6.47;;;2.60;;
83372;SDS011;73281;50.882;5.984;2024-01-30T01:45:19;6.22;;;2.80;;
83372;SDS011;73281;50.882;5.984;2024-01-30T01:47:45;7.17;;;2.90;;
83372;SDS011;73281;50.882;5.984;2024-01-30T01:50:13;6.80;;;2.97;;
83372;SDS011;73281;50.882;5.984;2024-01-30T01:52:43;4.65;;;2.60;;
83372;SDS011;73281;50.882;5.984;2024-01-30T01:55:09;5.65;;;2.70;;
83372;SDS011;73281;50.882;5.984;2024-01-30T01:57:34;5.60;;;2.90;;
83372;SDS011;73281;50.882;5.984;2024-01-30T02:00:01;4.30;;;2.70;;
83372;SDS011;73281;50.882;5.984;2024-01-30T02:02:27;4.87;;;2.90;;
83372;SDS011;73281;50.882;5.984;2024-01-30T02:04:59;4.80;;;2.53;;
83372;SDS011;73281;50.882;5.984;2024-01-30T02:07:25;5.50;;;2.65;;
83372;SDS011;73281;50.882;5.984;2024-01-30T02:09:53;5.78;;;2.92;;
83372;SDS011;73281;50.882;5.984;2024-01-30T02:12:18;7.53;;;2.70;;
83372;SDS011;73281;50.882;5.984;2024-01-30T02:14:44;6.70;;;3.07;;
83372;SDS011;73281;50.882;5.984;2024-01-30T02:17:10;3.85;;;2.45;;
83372;SDS011;73281;50.882;5.984;2024-01-30T02:19:36;6.93;;;3.17;;
83372;SDS011;73281;50.882;5.984;2024-01-30T02:22:01;5.65;;;2.50;;
83372;SDS011;73281;50.882;5.984;2024-01-30T02:24:27;4.60;;;2.30;;
83372;SDS011;73281;50.882;5.984;2024-01-30T02:26:53;7.97;;;2.63;;
83372;SDS011;73281;50.882;5.984;2024-01-30T02:29:18;4.10;;;2.30;;
83372;SDS011;73281;50.882;5.984;2024-01-30T02:31:43;6.93;;;2.40;;
83372;SDS011;73281;50.882;5.984;2024-01-30T02:34:10;4.63;;;2.35;;
83372;SDS011;73281;50.882;5.984;2024-01-30T02:36:36;6.43;;;2.70;;
83372;SDS011;73281;50.882;5.984;2024-01-30T02:39:01;4.97;;;2.43;;
83372;SDS011;73281;50.882;5.984;2024-01-30T02:41:27;5.77;;;2.30;;
83372;SDS011;73281;50.882;5.984;2024-01-30T02:43:52;6.40;;;2.50;;
83372;SDS011;73281;50.882;5.984;2024-01-30T02:46:18;3.35;;;2.20;;
83372;SDS011;73281;50.882;5.984;2024-01-30T02:48:43;5.77;;;2.43;;
83372;SDS011;73281;50.882;5.984;2024-01-30T02:51:08;5.63;;;2.27;;
83372;SDS011;73281;50.882;5.984;2024-01-30T02:53:34;4.17;;;2.17;;
83372;SDS011;73281;50.882;5.984;2024-01-30T02:55:59;4.17;;;2.00;;
83372;SDS011;73281;50.882;5.984;2024-01-30T02:58:26;4.28;;;2.15;;
83372;SDS011;73281;50.882;5.984;2024-01-30T03:00:52;5.80;;;2.25;;
83372;SDS011;73281;50.882;5.984;2024-01-30T03:03:17;4.60;;;2.27;;
83372;SDS011;73281;50.882;5.984;2024-01-30T03:05:42;3.20;;;2.23;;
83372;SDS011;73281;50.882;5.984;2024-01-30T03:08:08;3.57;;;2.17;;
83372;SDS011;73281;50.882;5.984;2024-01-30T03:10:33;5.20;;;2.43;;
83372;SDS011;73281;50.882;5.984;2024-01-30T03:12:58;4.78;;;2.40;;
83372;SDS011;73281;50.882;5.984;2024-01-30T03:15:24;5.97;;;2.13;;
83372;SDS011;73281;50.882;5.984;2024-01-30T03:17:49;5.47;;;2.00;;
83372;SDS011;73281;50.882;5.984;2024-01-30T03:20:14;4.90;;;2.30;;
83372;SDS011;73281;50.882;5.984;2024-01-30T03:22:40;6.27;;;2.73;;
83372;SDS011;73281;50.882;5.984;2024-01-30T03:25:05;4.13;;;2.43;;
83372;SDS011;73281;50.882;5.984;2024-01-30T03:27:31;5.05;;;2.55;;
83372;SDS011;73281;50.882;5.984;2024-01-30T03:29:56;3.50;;;2.10;;
83372;SDS011;73281;50.882;5.984;2024-01-30T03:32:22;4.07;;;2.20;;
83372;SDS011;73281;50.882;5.984;2024-01-30T03:34:47;4.75;;;2.53;;
83372;SDS011;73281;50.882;5.984;2024-01-30T03:37:12;5.00;;;2.70;;
83372;SDS011;73281;50.882;5.984;2024-01-30T03:39:38;4.33;;;2.30;;
83372;SDS011;73281;50.882;5.984;2024-01-30T03:42:03;4.37;;;2.20;;
83372;SDS011;73281;50.882;5.984;2024-01-30T03:44:28;5.53;;;2.63;;
83372;SDS011;73281;50.882;5.984;2024-01-30T03:46:54;5.47;;;2.30;;
83372;SDS011;73281;50.882;5.984;2024-01-30T03:49:19;3.77;;;2.20;;
83372;SDS011;73281;50.882;5.984;2024-01-30T03:51:44;5.33;;;2.10;;
83372;SDS011;73281;50.882;5.984;2024-01-30T03:54:12;6.45;;;2.35;;
83372;SDS011;73281;50.882;5.984;2024-01-30T03:56:37;5.20;;;2.50;;
83372;SDS011;73281;50.882;5.984;2024-01-30T03:59:03;3.90;;;2.20;;
83372;SDS011;73281;50.882;5.984;2024-01-30T04:01:28;5.07;;;2.53;;
83372;SDS011;73281;50.882;5.984;2024-01-30T04:03:53;4.53;;;2.27;;
83372;SDS011;73281;50.882;5.984;2024-01-30T04:06:19;4.28;;;2.05;;
83372;SDS011;73281;50.882;5.984;2024-01-30T04:08:44;4.77;;;2.67;;
83372;SDS011;73281;50.882;5.984;2024-01-30T04:11:10;5.60;;;2.47;;
83372;SDS011;73281;50.882;5.984;2024-01-30T04:13:35;5.43;;;2.33;;
83372;SDS011;73281;50.882;5.984;2024-01-30T04:16:01;5.53;;;2.45;;
83372;SDS011;73281;50.882;5.984;2024-01-30T04:18:27;6.27;;;2.50;;
83372;SDS011;73281;50.882;5.984;2024-01-30T04:20:53;4.55;;;2.47;;
83372;SDS011;73281;50.882;5.984;2024-01-30T04:23:19;3.97;;;2.08;;
83372;SDS011;73281;50.882;5.984;2024-01-30T04:25:44;4.73;;;2.27;;
83372;SDS011;73281;50.882;5.984;2024-01-30T04:28:09;5.20;;;2.63;;
83372;SDS011;73281;50.882;5.984;2024-01-30T04:30:37;4.22;;;2.30;;
83372;SDS011;73281;50.882;5.984;2024-01-30T04:33:03;4.77;;;2.17;;
83372;SDS011;73281;50.882;5.984;2024-01-30T04:35:28;3.92;;;2.20;;
83372;SDS011;73281;50.882;5.984;2024-01-30T04:37:54;4.17;;;2.03;;
83372;SDS011;73281;50.882;5.984;2024-01-30T04:40:20;6.97;;;2.43;;
83372;SDS011;73281;50.882;5.984;2024-01-30T04:42:46;5.93;;;2.13;;
83372;SDS011;73281;50.882;5.984;2024-01-30T04:45:11;7.13;;;2.33;;
83372;SDS011;73281;50.882;5.984;2024-01-30T04:47:37;6.50;;;2.80;;
83372;SDS011;73281;50.882;5.984;2024-01-30T04:50:04;4.55;;;2.42;;
83372;SDS011;73281;50.882;5.984;2024-01-30T04:52:31;7.53;;;2.25;;
83372;SDS011;73281;50.882;5.984;2024-01-30T04:54:56;4.70;;;2.40;;
83372;SDS011;73281;50.882;5.984;2024-01-30T04:57:21;3.43;;;2.40;;
83372;SDS011;73281;50.882;5.984;2024-01-30T04:59:47;6.73;;;2.93;;
83372;SDS011;73281;50.882;5.984;2024-01-30T05:02:12;3.92;;;2.47;;
83372;SDS011;73281;50.882;5.984;2024-01-30T05:04:38;4.63;;;2.33;;
83372;SDS011;73281;50.882;5.984;2024-01-30T05:07:03;3.40;;;2.30;;
83372;SDS011;73281;50.882;5.984;2024-01-30T05:09:29;6.38;;;2.70;;
83372;SDS011;73281;50.882;5.984;2024-01-30T05:11:54;5.50;;;2.73;;
83372;SDS011;73281;50.882;5.984;2024-01-30T05:14:20;5.20;;;2.50;;
83372;SDS011;73281;50.882;5.984;2024-01-30T05:16:45;5.80;;;2.60;;
83372;SDS011;73281;50.882;5.984;2024-01-30T05:19:12;4.50;;;2.50;;
83372;SDS011;73281;50.882;5.984;2024-01-30T05:21:39;5.80;;;2.50;;
83372;SDS011;73281;50.882;5.984;2024-01-30T05:24:04;4.00;;;2.13;;
83372;SDS011;73281;50.882;5.984;2024-01-30T05:26:30;6.97;;;2.42;;
83372;SDS011;73281;50.882;5.984;2024-01-30T05:28:55;5.17;;;2.53;;
83372;SDS011;73281;50.882;5.984;2024-01-30T05:31:20;5.80;;;2.27;;
83372;SDS011;73281;50.882;5.984;2024-01-30T05:33:46;6.83;;;1.93;;
83372;SDS011;73281;50.882;5.984;2024-01-30T05:36:12;4.88;;;2.75;;
83372;SDS011;73281;50.882;5.984;2024-01-30T05:38:40;6.40;;;2.57;;
83372;SDS011;73281;50.882;5.984;2024-01-30T05:41:06;3.05;;;1.80;;
83372;SDS011;73281;50.882;5.984;2024-01-30T05:43:31;2.50;;;1.90;;
83372;SDS011;73281;50.882;5.984;2024-01-30T05:45:56;4.50;;;2.30;;
83372;SDS011;73281;50.882;5.984;2024-01-30T05:48:22;4.70;;;2.50;;
83372;SDS011;73281;50.882;5.984;2024-01-30T05:50:47;4.40;;;2.17;;
83372;SDS011;73281;50.882;5.984;2024-01-30T05:53:12;4.83;;;2.23;;
83372;SDS011;73281;50.882;5.984;2024-01-30T05:55:38;5.53;;;2.67;;
83372;SDS011;73281;50.882;5.984;2024-01-30T05:58:03;5.18;;;2.10;;
83372;SDS011;73281;50.882;5.984;2024-01-30T06:00:29;6.23;;;2.33;;
83372;SDS011;73281;50.882;5.984;2024-01-30T06:02:55;5.45;;;2.00;;
83372;SDS011;73281;50.882;5.984;2024-01-30T06:05:20;6.17;;;2.23;;
83372;SDS011;73281;50.882;5.984;2024-01-30T06:07:45;4.67;;;2.40;;
83372;SDS011;73281;50.882;5.984;2024-01-30T06:10:11;4.77;;;2.47;;
83372;SDS011;73281;50.882;5.984;2024-01-30T06:12:36;6.75;;;2.58;;
83372;SDS011;73281;50.882;5.984;2024-01-30T06:15:02;4.40;;;2.80;;
83372;SDS011;73281;50.882;5.984;2024-01-30T06:17:28;4.40;;;2.65;;
83372;SDS011;73281;50.882;5.984;2024-01-30T06:19:54;6.10;;;2.40;;
83372;SDS011;73281;50.882;5.984;2024-01-30T06:22:19;5.30;;;2.47;;
83372;SDS011;73281;50.882;5.984;2024-01-30T06:24:45;6.17;;;2.80;;
83372;SDS011;73281;50.882;5.984;2024-01-30T06:27:12;3.85;;;2.30;;
83372;SDS011;73281;50.882;5.984;2024-01-30T06:29:38;6.03;;;2.73;;
83372;SDS011;73281;50.882;5.984;2024-01-30T06:32:03;4.17;;;2.07;;
83372;SDS011;73281;50.882;5.984;2024-01-30T06:34:29;4.90;;;2.28;;
83372;SDS011;73281;50.882;5.984;2024-01-30T06:36:54;3.63;;;2.07;;
83372;SDS011;73281;50.882;5.984;2024-01-30T06:39:20;4.70;;;2.30;;
83372;SDS011;73281;50.882;5.984;2024-01-30T06:41:45;6.32;;;2.65;;
83372;SDS011;73281;50.882;5.984;2024-01-30T06:44:11;6.37;;;2.33;;
83372;SDS011;73281;50.882;5.984;2024-01-30T06:46:37;5.27;;;2.47;;
83372;SDS011;73281;50.882;5.984;2024-01-30T06:49:03;6.50;;;3.05;;
83372;SDS011;73281;50.882;5.984;2024-01-30T06:51:29;5.20;;;2.43;;
83372;SDS011;73281;50.882;5.984;2024-01-30T06:53:54;6.53;;;2.80;;
83372;SDS011;73281;50.882;5.984;2024-01-30T06:56:19;5.15;;;2.72;;
83372;SDS011;73281;50.882;5.984;2024-01-30T06:58:48;5.73;;;2.93;;
83372;SDS011;73281;50.882;5.984;2024-01-30T07:01:14;5.85;;;2.55;;
83372;SDS011;73281;50.882;5.984;2024-01-30T07:03:40;6.05;;;2.70;;
83372;SDS011;73281;50.882;5.984;2024-01-30T07:06:06;6.67;;;2.37;;
83372;SDS011;73281;50.882;5.984;2024-01-30T07:08:31;5.47;;;2.35;;
83372;SDS011;73281;50.882;5.984;2024-01-30T07:10:56;5.33;;;2.30;;
83372;SDS011;73281;50.882;5.984;2024-01-30T07:13:22;7.73;;;2.83;;
83372;SDS011;73281;50.882;5.984;2024-01-30T07:15:47;5.40;;;3.07;;
83372;SDS011;73281;50.882;5.984;2024-01-30T07:18:13;8.60;;;3.03;;
83372;SDS011;73281;50.882;5.984;2024-01-30T07:20:41;8.10;;;2.80;;
83372;SDS011;73281;50.882;5.984;2024-01-30T07:23:11;7.95;;;3.50;;
83372;SDS011;73281;50.882;5.984;2024-01-30T07:25:39;7.00;;;2.30;;
83372;SDS011;73281;50.882;5.984;2024-01-30T07:28:06;7.80;;;3.10;;
83372;SDS011;73281;50.882;5.984;2024-01-30T07:30:34;4.47;;;2.20;;
83372;SDS011;73281;50.882;5.984;2024-01-30T07:32:59;5.03;;;3.17;;
83372;SDS011;73281;50.882;5.984;2024-01-30T07:35:25;8.57;;;2.83;;
83372;SDS011;73281;50.882;5.984;2024-01-30T07:37:50;6.50;;;2.70;;
83372;SDS011;73281;50.882;5.984;2024-01-30T07:40:15;5.60;;;2.80;;
83372;SDS011;73281;50.882;5.984;2024-01-30T07:42:42;7.07;;;3.20;;
83372;SDS011;73281;50.882;5.984;2024-01-30T07:45:07;4.77;;;2.80;;
83372;SDS011;73281;50.882;5.984;2024-01-30T07:47:33;6.00;;;2.90;;
83372;SDS011;73281;50.882;5.984;2024-01-30T07:49:58;9.20;;;3.30;;
83372;SDS011;73281;50.882;5.984;2024-01-30T07:52:24;5.63;;;2.73;;
83372;SDS011;73281;50.882;5.984;2024-01-30T07:54:49;5.47;;;3.33;;
83372;SDS011;73281;50.882;5.984;2024-01-30T07:57:15;7.53;;;3.47;;
83372;SDS011;73281;50.882;5.984;2024-01-30T07:59:44;7.88;;;3.38;;
83372;SDS011;73281;50.882;5.984;2024-01-30T08:02:11;6.77;;;3.00;;
83372;SDS011;73281;50.882;5.984;2024-01-30T08:04:37;7.95;;;3.08;;
83372;SDS011;73281;50.882;5.984;2024-01-30T08:07:02;9.63;;;3.27;;
83372;SDS011;73281;50.882;5.984;2024-01-30T08:09:28;6.45;;;2.67;;
83372;SDS011;73281;50.882;5.984;2024-01-30T08:11:53;5.33;;;3.10;;
83372;SDS011;73281;50.882;5.984;2024-01-30T08:14:19;7.80;;;2.73;;
83372;SDS011;73281;50.882;5.984;2024-01-30T08:16:44;6.10;;;3.30;;
83372;SDS011;73281;50.882;5.984;2024-01-30T08:19:09;7.75;;;3.25;;
83372;SDS011;73281;50.882;5.984;2024-01-30T08:21:35;5.90;;;3.00;;
83372;SDS011;73281;50.882;5.984;2024-01-30T08:24:04;8.88;;;3.70;;
83372;SDS011;73281;50.882;5.984;2024-01-30T08:26:30;10.10;;;3.50;;
83372;SDS011;73281;50.882;5.984;2024-01-30T08:28:56;8.77;;;3.63;;
83372;SDS011;73281;50.882;5.984;2024-01-30T08:31:21;7.93;;;3.27;;
83372;SDS011;73281;50.882;5.984;2024-01-30T08:33:47;6.03;;;3.00;;
83372;SDS011;73281;50.882;5.984;2024-01-30T08:36:12;6.68;;;3.25;;
83372;SDS011;73281;50.882;5.984;2024-01-30T08:38:37;7.20;;;3.23;;
83372;SDS011;73281;50.882;5.984;2024-01-30T08:41:03;6.97;;;2.67;;
83372;SDS011;73281;50.882;5.984;2024-01-30T08:43:28;6.17;;;2.93;;
83372;SDS011;73281;50.882;5.984;2024-01-30T08:45:53;5.32;;;2.95;;
83372;SDS011;73281;50.882;5.984;2024-01-30T08:48:19;6.83;;;3.20;;
83372;SDS011;73281;50.882;5.984;2024-01-30T08:50:44;8.07;;;3.10;;
83372;SDS011;73281;50.882;5.984;2024-01-30T08:53:10;6.87;;;3.50;;
83372;SDS011;73281;50.882;5.984;2024-01-30T08:55:35;5.60;;;2.93;;
83372;SDS011;73281;50.882;5.984;2024-01-30T08:58:00;5.07;;;2.93;;
83372;SDS011;73281;50.882;5.984;2024-01-30T09:00:27;7.43;;;3.13;;
83372;SDS011;73281;50.882;5.984;2024-01-30T09:02:53;7.40;;;3.35;;
83372;SDS011;73281;50.882;5.984;2024-01-30T09:05:19;7.47;;;3.90;;
83372;SDS011;73281;50.882;5.984;2024-01-30T09:07:44;7.17;;;3.70;;
83372;SDS011;73281;50.882;5.984;2024-01-30T09:10:10;7.22;;;3.50;;
83372;SDS011;73281;50.882;5.984;2024-01-30T09:12:36;7.40;;;3.37;;
83372;SDS011;73281;50.882;5.984;2024-01-30T09:15:01;6.03;;;3.30;;
83372;SDS011;73281;50.882;5.984;2024-01-30T09:17:27;5.67;;;3.30;;
83372;SDS011;73281;50.882;5.984;2024-01-30T09:19:52;9.27;;;3.07;;
83372;SDS011;73281;50.882;5.984;2024-01-30T09:22:17;8.30;;;3.43;;
83372;SDS011;73281;50.882;5.984;2024-01-30T09:24:43;5.60;;;2.70;;
83372;SDS011;73281;50.882;5.984;2024-01-30T09:27:08;6.20;;;3.17;;
83372;SDS011;73281;50.882;5.984;2024-01-30T09:29:34;8.90;;;2.92;;
83372;SDS011;73281;50.882;5.984;2024-01-30T09:32:01;6.28;;;3.15;;
83372;SDS011;73281;50.882;5.984;2024-01-30T09:34:26;5.03;;;2.53;;
83372;SDS011;73281;50.882;5.984;2024-01-30T09:36:52;7.27;;;2.80;;
83372;SDS011;73281;50.882;5.984;2024-01-30T09:39:17;9.02;;;2.78;;
83372;SDS011;73281;50.882;5.984;2024-01-30T09:41:45;9.17;;;3.00;;
83372;SDS011;73281;50.882;5.984;2024-01-30T09:44:15;8.48;;;2.70;;
83372;SDS011;73281;50.882;5.984;2024-01-30T09:46:41;8.25;;;2.60;;
83372;SDS011;73281;50.882;5.984;2024-01-30T09:49:08;6.80;;;2.83;;
83372;SDS011;73281;50.882;5.984;2024-01-30T09:51:34;4.80;;;2.38;;
83372;SDS011;73281;50.882;5.984;2024-01-30T09:54:01;11.60;;;2.83;;
83372;SDS011;73281;50.882;5.984;2024-01-30T09:56:28;7.65;;;3.08;;
83372;SDS011;73281;50.882;5.984;2024-01-30T09:58:54;8.60;;;3.15;;
83372;SDS011;73281;50.882;5.984;2024-01-30T10:01:19;7.97;;;2.53;;
83372;SDS011;73281;50.882;5.984;2024-01-30T10:03:45;8.13;;;2.80;;
83372;SDS011;73281;50.882;5.984;2024-01-30T10:06:11;6.95;;;2.72;;
83372;SDS011;73281;50.882;5.984;2024-01-30T10:08:37;8.03;;;2.90;;
83372;SDS011;73281;50.882;5.984;2024-01-30T10:11:02;6.65;;;3.03;;
83372;SDS011;73281;50.882;5.984;2024-01-30T10:13:28;8.85;;;3.50;;
83372;SDS011;73281;50.882;5.984;2024-01-30T10:15:54;6.53;;;2.50;;
83372;SDS011;73281;50.882;5.984;2024-01-30T10:18:22;7.60;;;2.75;;
83372;SDS011;73281;50.882;5.984;2024-01-30T10:20:48;6.72;;;2.92;;
83372;SDS011;73281;50.882;5.984;2024-01-30T10:23:13;6.83;;;3.17;;
83372;SDS011;73281;50.882;5.984;2024-01-30T10:25:39;5.87;;;2.90;;
83372;SDS011;73281;50.882;5.984;2024-01-30T10:28:04;8.10;;;3.50;;
83372;SDS011;73281;50.882;5.984;2024-01-30T10:30:30;7.53;;;3.28;;
83372;SDS011;73281;50.882;5.984;2024-01-30T10:32:55;6.93;;;3.23;;
83372;SDS011;73281;50.882;5.984;2024-01-30T10:35:20;7.77;;;3.40;;
83372;SDS011;73281;50.882;5.984;2024-01-30T10:37:49;7.82;;;3.05;;
83372;SDS011;73281;50.882;5.984;2024-01-30T10:40:15;7.37;;;3.40;;
83372;SDS011;73281;50.882;5.984;2024-01-30T10:42:44;6.03;;;2.85;;
83372;SDS011;73281;50.882;5.984;2024-01-30T10:45:13;8.30;;;3.15;;
83372;SDS011;73281;50.882;5.984;2024-01-30T10:47:48;9.57;;;3.80;;
83372;SDS011;73281;50.882;5.984;2024-01-30T10:50:14;6.73;;;3.00;;
83372;SDS011;73281;50.882;5.984;2024-01-30T10:52:40;9.80;;;2.78;;
83372;SDS011;73281;50.882;5.984;2024-01-30T10:55:10;7.93;;;3.03;;
83372;SDS011;73281;50.882;5.984;2024-01-30T10:57:36;7.90;;;3.35;;
83372;SDS011;73281;50.882;5.984;2024-01-30T11:00:04;9.63;;;3.67;;
83372;SDS011;73281;50.882;5.984;2024-01-30T11:02:35;8.30;;;3.28;;
83372;SDS011;73281;50.882;5.984;2024-01-30T11:05:04;5.88;;;3.40;;
83372;SDS011;73281;50.882;5.984;2024-01-30T11:07:29;10.25;;;4.10;;
83372;SDS011;73281;50.882;5.984;2024-01-30T11:12:23;8.35;;;3.42;;
83372;SDS011;73281;50.882;5.984;2024-01-30T11:15:37;10.88;;;3.70;;
83372;SDS011;73281;50.882;5.984;2024-01-30T11:20:30;8.15;;;3.40;;
83372;SDS011;73281;50.882;5.984;2024-01-30T11:23:00;12.52;;;3.42;;
83372;SDS011;73281;50.882;5.984;2024-01-30T11:25:32;9.40;;;3.35;;
83372;SDS011;73281;50.882;5.984;2024-01-30T11:27:58;9.70;;;3.58;;
83372;SDS011;73281;50.882;5.984;2024-01-30T11:30:24;8.63;;;4.20;;
83372;SDS011;73281;50.882;5.984;2024-01-30T11:33:02;9.52;;;3.65;;
83372;SDS011;73281;50.882;5.984;2024-01-30T11:35:36;9.95;;;3.63;;
83372;SDS011;73281;50.882;5.984;2024-01-30T11:38:07;7.35;;;3.70;;
83372;SDS011;73281;50.882;5.984;2024-01-30T11:40:34;8.82;;;3.50;;
83372;SDS011;73281;50.882;5.984;2024-01-30T11:43:01;11.13;;;4.03;;
83372;SDS011;73281;50.882;5.984;2024-01-30T11:45:29;9.13;;;3.67;;
83372;SDS011;73281;50.882;5.984;2024-01-30T11:47:55;8.82;;;4.00;;
83372;SDS011;73281;50.882;5.984;2024-01-30T11:50:21;6.75;;;3.17;;
83372;SDS011;73281;50.882;5.984;2024-01-30T11:52:47;8.17;;;4.43;;
83372;SDS011;73281;50.882;5.984;2024-01-30T11:55:14;8.73;;;4.15;;
83372;SDS011;73281;50.882;5.984;2024-01-30T11:57:40;8.88;;;4.20;;
83372;SDS011;73281;50.882;5.984;2024-01-30T12:00:06;9.80;;;4.43;;
83372;SDS011;73281;50.882;5.984;2024-01-30T12:02:39;9.65;;;4.55;;
83372;SDS011;73281;50.882;5.984;2024-01-30T12:05:05;9.70;;;4.68;;
83372;SDS011;73281;50.882;5.984;2024-01-30T12:07:31;10.00;;;4.03;;
83372;SDS011;73281;50.882;5.984;2024-01-30T12:09:57;9.00;;;4.38;;
83372;SDS011;73281;50.882;5.984;2024-01-30T12:12:26;7.97;;;3.97;;
83372;SDS011;73281;50.882;5.984;2024-01-30T12:14:53;9.82;;;4.15;;
83372;SDS011;73281;50.882;5.984;2024-01-30T12:17:27;10.27;;;4.53;;
83372;SDS011;73281;50.882;5.984;2024-01-30T12:20:12;10.13;;;4.13;;
83372;SDS011;73281;50.882;5.984;2024-01-30T12:22:40;9.07;;;4.22;;
83372;SDS011;73281;50.882;5.984;2024-01-30T12:25:16;6.32;;;3.60;;
83372;SDS011;73281;50.882;5.984;2024-01-30T12:27:44;12.13;;;4.60;;
83372;SDS011;73281;50.882;5.984;2024-01-30T12:30:12;6.65;;;3.92;;
83372;SDS011;73281;50.882;5.984;2024-01-30T12:32:39;9.63;;;4.07;;
83372;SDS011;73281;50.882;5.984;2024-01-30T12:35:12;9.65;;;4.45;;
83372;SDS011;73281;50.882;5.984;2024-01-30T12:37:45;9.80;;;5.30;;
83372;SDS011;73281;50.882;5.984;2024-01-30T12:40:13;10.25;;;4.40;;
83372;SDS011;73281;50.882;5.984;2024-01-30T12:42:40;8.57;;;4.72;;
83372;SDS011;73281;50.882;5.984;2024-01-30T12:45:13;11.00;;;5.27;;
83372;SDS011;73281;50.882;5.984;2024-01-30T12:47:39;10.88;;;4.30;;
83372;SDS011;73281;50.882;5.984;2024-01-30T12:50:05;10.57;;;4.47;;
83372;SDS011;73281;50.882;5.984;2024-01-30T12:52:31;10.57;;;4.20;;
83372;SDS011;73281;50.882;5.984;2024-01-30T12:54:56;11.23;;;4.97;;
83372;SDS011;73281;50.882;5.984;2024-01-30T12:57:21;8.57;;;4.30;;
83372;SDS011;73281;50.882;5.984;2024-01-30T12:59:47;12.50;;;5.03;;
83372;SDS011;73281;50.882;5.984;2024-01-30T13:02:13;10.40;;;5.20;;
83372;SDS011;73281;50.882;5.984;2024-01-30T13:04:39;7.82;;;4.72;;
83372;SDS011;73281;50.882;5.984;2024-01-30T13:07:04;10.27;;;4.30;;
83372;SDS011;73281;50.882;5.984;2024-01-30T13:09:30;12.00;;;4.87;;
83372;SDS011;73281;50.882;5.984;2024-01-30T13:11:56;9.95;;;4.93;;
83372;SDS011;73281;50.882;5.984;2024-01-30T13:14:22;8.03;;;4.53;;
83372;SDS011;73281;50.882;5.984;2024-01-30T13:16:47;10.02;;;4.78;;
83372;SDS011;73281;50.882;5.984;2024-01-30T13:19:13;10.37;;;4.37;;
83372;SDS011;73281;50.882;5.984;2024-01-30T13:21:38;9.43;;;4.53;;
83372;SDS011;73281;50.882;5.984;2024-01-30T13:24:04;10.70;;;5.03;;
83372;SDS011;73281;50.882;5.984;2024-01-30T13:26:31;12.93;;;5.30;;
83372;SDS011;73281;50.882;5.984;2024-01-30T13:28:57;10.88;;;4.47;;
83372;SDS011;73281;50.882;5.984;2024-01-30T13:31:23;10.47;;;4.70;;
83372;SDS011;73281;50.882;5.984;2024-01-30T13:33:48;7.33;;;4.37;;
83372;SDS011;73281;50.882;5.984;2024-01-30T13:36:14;8.00;;;3.50;;
83372;SDS011;73281;50.882;5.984;2024-01-30T13:38:39;14.87;;;5.10;;
83372;SDS011;73281;50.882;5.984;2024-01-30T13:41:05;11.35;;;4.50;;
83372;SDS011;73281;50.882;5.984;2024-01-30T13:43:31;10.00;;;4.17;;
83372;SDS011;73281;50.882;5.984;2024-01-30T13:45:56;9.80;;;5.00;;
83372;SDS011;73281;50.882;5.984;2024-01-30T13:48:22;12.93;;;4.70;;
83372;SDS011;73281;50.882;5.984;2024-01-30T13:50:47;10.47;;;5.10;;
83372;SDS011;73281;50.882;5.984;2024-01-30T13:53:13;15.13;;;4.55;;
83372;SDS011;73281;50.882;5.984;2024-01-30T13:55:38;11.70;;;4.87;;
83372;SDS011;73281;50.882;5.984;2024-01-30T13:58:04;10.13;;;4.95;;
83372;SDS011;73281;50.882;5.984;2024-01-30T14:00:30;9.87;;;5.03;;
83372;SDS011;73281;50.882;5.984;2024-01-30T14:02:55;11.07;;;4.77;;
83372;SDS011;73281;50.882;5.984;2024-01-30T14:05:22;10.33;;;4.83;;
83372;SDS011;73281;50.882;5.984;2024-01-30T14:07:48;11.35;;;5.10;;
83372;SDS011;73281;50.882;5.984;2024-01-30T14:10:14;10.40;;;5.17;;
83372;SDS011;73281;50.882;5.984;2024-01-30T14:12:41;11.02;;;4.60;;
83372;SDS011;73281;50.882;5.984;2024-01-30T14:15:08;11.82;;;4.43;;
83372;SDS011;73281;50.882;5.984;2024-01-30T14:17:35;9.50;;;5.43;;
83372;SDS011;73281;50.882;5.984;2024-01-30T14:20:01;10.00;;;5.10;;
83372;SDS011;73281;50.882;5.984;2024-01-30T14:22:28;14.00;;;5.90;;
83372;SDS011;73281;50.882;5.984;2024-01-30T14:24:53;13.77;;;5.63;;
83372;SDS011;73281;50.882;5.984;2024-01-30T14:27:19;12.40;;;5.23;;
83372;SDS011;73281;50.882;5.984;2024-01-30T14:29:44;11.05;;;4.55;;
83372;SDS011;73281;50.882;5.984;2024-01-30T14:32:09;11.80;;;5.03;;
83372;SDS011;73281;50.882;5.984;2024-01-30T14:34:35;12.20;;;5.43;;
83372;SDS011;73281;50.882;5.984;2024-01-30T14:37:00;13.03;;;5.13;;
83372;SDS011;73281;50.882;5.984;2024-01-30T14:39:26;10.37;;;4.10;;
83372;SDS011;73281;50.882;5.984;2024-01-30T14:41:51;8.38;;;4.03;;
83372;SDS011;73281;50.882;5.984;2024-01-30T14:44:16;8.80;;;3.63;;